Preview of NWS' New Version of Forecast
This preview is not operational and should not be used for support decisions.

Terminal Aerodrome Forecast (TAF)

Issued by National Weather Service (NWS)

                            
456 
FTUS42 KKEY 200436 AAA
TAFEYW
TAF AMD
KEYW 200436Z 2005/2024 10017G27KT P6SM VCSH SCT020 BKN050
      TEMPO 2005/2007 5SM -SHRA BKN020 OVC040
     FM201500 12016G25KT P6SM FEW020 SCT050=